Fulton, Missouri
Current Conditions -  °F | °C
As of 2:54 PM on Sunday 21 Dec 2014 (Local Time) from KCOU Reporting Station
Overcast Overcast  
Wind Chill: 36°   Ceiling: 1500
Heat Index: 43°   Visibility: 10mi
Dew Point: 38°   Wind: 14mph
Humidity: 82%   Direction: 170°S
Pressure: 29.95"   Gusts: NA
Location:  38.85°N, 91.95°W
Report Text: KCOU 212054Z 17012KT 10SM BKN015 OVC041 06/03 A2995 RMK AO2 RAB11E42 SLP145 P0000 60000 T00610033 56030
Loading
Personal Weather Stations






























Interactive Weather Map New forecast layout! Learn more

10-Day Weather Forecast

Advertisements
Track Severe Weather on mobile